sensor_id;sensor_type;location;lat;lon;timestamp;P1;durP1;ratioP1;P2;durP2;ratioP2
74632;SDS011;63139;52.018;8.552;2023-02-01T00:01:51;20.00;;;3.35;;
74632;SDS011;63139;52.018;8.552;2023-02-01T00:04:19;18.90;;;3.42;;
74632;SDS011;63139;52.018;8.552;2023-02-01T00:06:46;18.52;;;3.17;;
74632;SDS011;63139;52.018;8.552;2023-02-01T00:09:14;25.85;;;3.50;;
74632;SDS011;63139;52.018;8.552;2023-02-01T00:11:43;19.92;;;3.13;;
74632;SDS011;63139;52.018;8.552;2023-02-01T00:14:11;25.40;;;4.28;;
74632;SDS011;63139;52.018;8.552;2023-02-01T00:16:39;18.30;;;3.10;;
74632;SDS011;63139;52.018;8.552;2023-02-01T00:19:09;21.25;;;3.20;;
74632;SDS011;63139;52.018;8.552;2023-02-01T00:21:38;16.45;;;2.58;;
74632;SDS011;63139;52.018;8.552;2023-02-01T00:24:06;19.35;;;3.40;;
74632;SDS011;63139;52.018;8.552;2023-02-01T00:26:35;19.73;;;2.60;;
74632;SDS011;63139;52.018;8.552;2023-02-01T00:29:06;12.25;;;2.97;;
74632;SDS011;63139;52.018;8.552;2023-02-01T00:31:37;17.67;;;3.33;;
74632;SDS011;63139;52.018;8.552;2023-02-01T00:34:06;23.20;;;3.13;;
74632;SDS011;63139;52.018;8.552;2023-02-01T00:36:34;18.40;;;2.92;;
74632;SDS011;63139;52.018;8.552;2023-02-01T00:39:02;23.42;;;3.05;;
74632;SDS011;63139;52.018;8.552;2023-02-01T00:41:30;18.40;;;3.13;;
74632;SDS011;63139;52.018;8.552;2023-02-01T00:43:58;24.13;;;3.58;;
74632;SDS011;63139;52.018;8.552;2023-02-01T00:46:27;17.40;;;3.00;;
74632;SDS011;63139;52.018;8.552;2023-02-01T00:48:55;19.90;;;3.33;;
74632;SDS011;63139;52.018;8.552;2023-02-01T00:51:25;14.57;;;2.78;;
74632;SDS011;63139;52.018;8.552;2023-02-01T00:53:55;15.02;;;2.72;;
74632;SDS011;63139;52.018;8.552;2023-02-01T00:56:24;19.35;;;3.00;;
74632;SDS011;63139;52.018;8.552;2023-02-01T00:58:53;14.00;;;2.80;;
74632;SDS011;63139;52.018;8.552;2023-02-01T01:01:22;13.05;;;2.63;;
74632;SDS011;63139;52.018;8.552;2023-02-01T01:03:52;20.67;;;3.25;;
74632;SDS011;63139;52.018;8.552;2023-02-01T01:06:22;16.40;;;3.53;;
74632;SDS011;63139;52.018;8.552;2023-02-01T01:08:51;17.13;;;3.20;;
74632;SDS011;63139;52.018;8.552;2023-02-01T01:11:20;16.92;;;2.78;;
74632;SDS011;63139;52.018;8.552;2023-02-01T01:13:50;22.73;;;4.00;;
74632;SDS011;63139;52.018;8.552;2023-02-01T01:16:20;19.95;;;3.25;;
74632;SDS011;63139;52.018;8.552;2023-02-01T01:18:49;19.48;;;3.15;;
74632;SDS011;63139;52.018;8.552;2023-02-01T01:21:18;14.75;;;3.00;;
74632;SDS011;63139;52.018;8.552;2023-02-01T01:23:46;18.52;;;2.97;;
74632;SDS011;63139;52.018;8.552;2023-02-01T01:26:15;15.13;;;3.45;;
74632;SDS011;63139;52.018;8.552;2023-02-01T01:28:44;18.65;;;3.80;;
74632;SDS011;63139;52.018;8.552;2023-02-01T01:31:13;18.17;;;3.33;;
74632;SDS011;63139;52.018;8.552;2023-02-01T01:33:43;15.00;;;3.33;;
74632;SDS011;63139;52.018;8.552;2023-02-01T01:36:11;14.13;;;3.10;;
74632;SDS011;63139;52.018;8.552;2023-02-01T01:38:41;18.17;;;3.22;;
74632;SDS011;63139;52.018;8.552;2023-02-01T01:41:12;14.48;;;3.55;;
74632;SDS011;63139;52.018;8.552;2023-02-01T01:43:46;16.83;;;3.85;;
74632;SDS011;63139;52.018;8.552;2023-02-01T01:46:17;14.85;;;3.35;;
74632;SDS011;63139;52.018;8.552;2023-02-01T01:48:47;16.00;;;3.58;;
74632;SDS011;63139;52.018;8.552;2023-02-01T01:51:19;23.63;;;3.75;;
74632;SDS011;63139;52.018;8.552;2023-02-01T01:53:53;15.27;;;3.15;;
74632;SDS011;63139;52.018;8.552;2023-02-01T01:56:26;21.05;;;3.88;;
74632;SDS011;63139;52.018;8.552;2023-02-01T01:58:57;14.85;;;3.33;;
74632;SDS011;63139;52.018;8.552;2023-02-01T02:01:26;14.80;;;3.40;;
74632;SDS011;63139;52.018;8.552;2023-02-01T02:03:55;15.23;;;3.53;;
74632;SDS011;63139;52.018;8.552;2023-02-01T02:06:27;21.70;;;3.85;;
74632;SDS011;63139;52.018;8.552;2023-02-01T02:09:03;17.77;;;3.70;;
74632;SDS011;63139;52.018;8.552;2023-02-01T02:11:32;12.68;;;3.40;;
74632;SDS011;63139;52.018;8.552;2023-02-01T02:14:00;14.95;;;3.67;;
74632;SDS011;63139;52.018;8.552;2023-02-01T02:16:38;18.42;;;3.25;;
74632;SDS011;63139;52.018;8.552;2023-02-01T02:19:22;14.25;;;3.10;;
74632;SDS011;63139;52.018;8.552;2023-02-01T02:22:21;21.63;;;3.97;;
74632;SDS011;63139;52.018;8.552;2023-02-01T02:28:14;20.02;;;3.58;;
74632;SDS011;63139;52.018;8.552;2023-02-01T02:33:55;13.85;;;3.42;;
74632;SDS011;63139;52.018;8.552;2023-02-01T02:36:34;20.10;;;4.13;;
74632;SDS011;63139;52.018;8.552;2023-02-01T02:39:13;15.60;;;3.58;;
74632;SDS011;63139;52.018;8.552;2023-02-01T02:41:50;19.83;;;3.42;;
74632;SDS011;63139;52.018;8.552;2023-02-01T02:44:45;26.92;;;4.25;;
74632;SDS011;63139;52.018;8.552;2023-02-01T02:47:48;21.30;;;3.70;;
74632;SDS011;63139;52.018;8.552;2023-02-01T02:50:25;14.27;;;3.08;;
74632;SDS011;63139;52.018;8.552;2023-02-01T02:53:15;18.23;;;3.90;;
74632;SDS011;63139;52.018;8.552;2023-02-01T02:56:04;16.52;;;3.17;;
74632;SDS011;63139;52.018;8.552;2023-02-01T02:58:52;24.00;;;3.55;;
74632;SDS011;63139;52.018;8.552;2023-02-01T03:01:38;16.90;;;3.60;;
74632;SDS011;63139;52.018;8.552;2023-02-01T03:04:24;19.70;;;3.50;;
74632;SDS011;63139;52.018;8.552;2023-02-01T03:06:54;13.18;;;3.00;;
74632;SDS011;63139;52.018;8.552;2023-02-01T03:09:22;16.50;;;3.55;;
74632;SDS011;63139;52.018;8.552;2023-02-01T03:11:58;16.55;;;3.65;;
74632;SDS011;63139;52.018;8.552;2023-02-01T03:14:49;16.98;;;3.65;;
74632;SDS011;63139;52.018;8.552;2023-02-01T03:17:24;14.00;;;2.70;;
74632;SDS011;63139;52.018;8.552;2023-02-01T03:19:58;17.33;;;2.85;;
74632;SDS011;63139;52.018;8.552;2023-02-01T03:22:29;15.82;;;3.67;;
74632;SDS011;63139;52.018;8.552;2023-02-01T03:25:01;13.18;;;2.97;;
74632;SDS011;63139;52.018;8.552;2023-02-01T03:27:34;21.83;;;3.30;;
74632;SDS011;63139;52.018;8.552;2023-02-01T03:30:08;15.70;;;3.25;;
74632;SDS011;63139;52.018;8.552;2023-02-01T03:32:45;17.27;;;3.08;;
74632;SDS011;63139;52.018;8.552;2023-02-01T03:35:28;18.40;;;3.33;;
74632;SDS011;63139;52.018;8.552;2023-02-01T03:38:03;18.95;;;2.78;;
74632;SDS011;63139;52.018;8.552;2023-02-01T03:40:40;19.60;;;3.17;;
74632;SDS011;63139;52.018;8.552;2023-02-01T03:43:14;22.27;;;2.67;;
74632;SDS011;63139;52.018;8.552;2023-02-01T03:45:47;25.33;;;3.28;;
74632;SDS011;63139;52.018;8.552;2023-02-01T03:48:19;18.95;;;3.13;;
74632;SDS011;63139;52.018;8.552;2023-02-01T03:50:52;16.23;;;2.83;;
74632;SDS011;63139;52.018;8.552;2023-02-01T03:53:25;18.42;;;2.72;;
74632;SDS011;63139;52.018;8.552;2023-02-01T03:55:55;19.25;;;3.70;;
74632;SDS011;63139;52.018;8.552;2023-02-01T03:58:24;13.40;;;2.67;;
74632;SDS011;63139;52.018;8.552;2023-02-01T04:00:53;14.73;;;3.08;;
74632;SDS011;63139;52.018;8.552;2023-02-01T04:03:23;12.75;;;2.58;;
74632;SDS011;63139;52.018;8.552;2023-02-01T04:05:52;14.95;;;2.53;;
74632;SDS011;63139;52.018;8.552;2023-02-01T04:08:25;9.85;;;2.15;;
74632;SDS011;63139;52.018;8.552;2023-02-01T04:10:53;19.67;;;2.65;;
74632;SDS011;63139;52.018;8.552;2023-02-01T04:13:21;22.55;;;3.17;;
74632;SDS011;63139;52.018;8.552;2023-02-01T04:15:49;20.45;;;2.83;;
74632;SDS011;63139;52.018;8.552;2023-02-01T04:18:17;12.52;;;2.83;;
74632;SDS011;63139;52.018;8.552;2023-02-01T04:20:44;8.88;;;2.45;;
74632;SDS011;63139;52.018;8.552;2023-02-01T04:23:12;19.30;;;2.67;;
74632;SDS011;63139;52.018;8.552;2023-02-01T04:25:43;13.10;;;2.95;;
74632;SDS011;63139;52.018;8.552;2023-02-01T04:28:11;13.95;;;2.60;;
74632;SDS011;63139;52.018;8.552;2023-02-01T04:30:39;13.50;;;2.75;;
74632;SDS011;63139;52.018;8.552;2023-02-01T04:33:07;19.08;;;2.83;;
74632;SDS011;63139;52.018;8.552;2023-02-01T04:35:35;16.02;;;2.78;;
74632;SDS011;63139;52.018;8.552;2023-02-01T04:38:02;15.93;;;3.10;;
74632;SDS011;63139;52.018;8.552;2023-02-01T04:40:30;15.30;;;2.67;;
74632;SDS011;63139;52.018;8.552;2023-02-01T04:42:59;18.10;;;3.10;;
74632;SDS011;63139;52.018;8.552;2023-02-01T04:45:27;17.83;;;3.47;;
74632;SDS011;63139;52.018;8.552;2023-02-01T04:47:55;15.70;;;2.88;;
74632;SDS011;63139;52.018;8.552;2023-02-01T04:50:23;17.30;;;3.00;;
74632;SDS011;63139;52.018;8.552;2023-02-01T04:52:51;17.90;;;3.38;;
74632;SDS011;63139;52.018;8.552;2023-02-01T04:55:19;24.92;;;2.80;;
74632;SDS011;63139;52.018;8.552;2023-02-01T04:57:47;24.30;;;3.38;;
74632;SDS011;63139;52.018;8.552;2023-02-01T05:00:16;20.15;;;3.65;;
74632;SDS011;63139;52.018;8.552;2023-02-01T05:02:45;24.27;;;3.72;;
74632;SDS011;63139;52.018;8.552;2023-02-01T05:05:13;17.42;;;3.10;;
74632;SDS011;63139;52.018;8.552;2023-02-01T05:07:41;19.05;;;2.95;;
74632;SDS011;63139;52.018;8.552;2023-02-01T05:10:09;23.70;;;3.50;;
74632;SDS011;63139;52.018;8.552;2023-02-01T05:12:37;18.73;;;3.28;;
74632;SDS011;63139;52.018;8.552;2023-02-01T05:15:24;18.13;;;3.15;;
74632;SDS011;63139;52.018;8.552;2023-02-01T05:17:52;24.98;;;3.80;;
74632;SDS011;63139;52.018;8.552;2023-02-01T05:20:20;17.95;;;3.10;;
74632;SDS011;63139;52.018;8.552;2023-02-01T05:22:48;14.23;;;2.72;;
74632;SDS011;63139;52.018;8.552;2023-02-01T05:25:16;17.65;;;3.17;;
74632;SDS011;63139;52.018;8.552;2023-02-01T05:27:45;18.20;;;2.67;;
74632;SDS011;63139;52.018;8.552;2023-02-01T05:30:13;16.88;;;2.92;;
74632;SDS011;63139;52.018;8.552;2023-02-01T05:32:43;20.90;;;3.08;;
74632;SDS011;63139;52.018;8.552;2023-02-01T05:35:10;12.15;;;2.40;;
74632;SDS011;63139;52.018;8.552;2023-02-01T05:37:38;13.13;;;2.63;;
74632;SDS011;63139;52.018;8.552;2023-02-01T05:40:06;16.27;;;3.65;;
74632;SDS011;63139;52.018;8.552;2023-02-01T05:42:35;21.38;;;3.28;;
74632;SDS011;63139;52.018;8.552;2023-02-01T05:45:03;19.42;;;3.08;;
74632;SDS011;63139;52.018;8.552;2023-02-01T05:47:33;26.20;;;3.00;;
74632;SDS011;63139;52.018;8.552;2023-02-01T05:50:03;18.40;;;3.45;;
74632;SDS011;63139;52.018;8.552;2023-02-01T05:52:32;18.90;;;3.10;;
74632;SDS011;63139;52.018;8.552;2023-02-01T05:55:00;14.27;;;2.95;;
74632;SDS011;63139;52.018;8.552;2023-02-01T05:57:28;16.67;;;3.72;;
74632;SDS011;63139;52.018;8.552;2023-02-01T05:59:56;18.35;;;3.28;;
74632;SDS011;63139;52.018;8.552;2023-02-01T06:02:26;16.20;;;2.67;;
74632;SDS011;63139;52.018;8.552;2023-02-01T06:04:53;18.90;;;3.40;;
74632;SDS011;63139;52.018;8.552;2023-02-01T06:07:23;18.83;;;3.72;;
74632;SDS011;63139;52.018;8.552;2023-02-01T06:09:53;21.42;;;3.50;;
74632;SDS011;63139;52.018;8.552;2023-02-01T06:12:21;14.05;;;3.20;;
74632;SDS011;63139;52.018;8.552;2023-02-01T06:14:48;20.50;;;3.10;;
74632;SDS011;63139;52.018;8.552;2023-02-01T06:17:16;21.65;;;3.38;;
74632;SDS011;63139;52.018;8.552;2023-02-01T06:19:45;18.98;;;3.08;;
74632;SDS011;63139;52.018;8.552;2023-02-01T06:22:14;26.67;;;3.83;;
74632;SDS011;63139;52.018;8.552;2023-02-01T06:24:43;23.45;;;3.47;;
74632;SDS011;63139;52.018;8.552;2023-02-01T06:27:11;21.20;;;3.70;;
74632;SDS011;63139;52.018;8.552;2023-02-01T06:29:39;13.02;;;3.28;;
74632;SDS011;63139;52.018;8.552;2023-02-01T06:32:07;15.10;;;3.13;;
74632;SDS011;63139;52.018;8.552;2023-02-01T06:34:35;22.00;;;3.47;;
74632;SDS011;63139;52.018;8.552;2023-02-01T06:37:03;16.85;;;2.80;;
74632;SDS011;63139;52.018;8.552;2023-02-01T06:39:31;18.20;;;3.38;;
74632;SDS011;63139;52.018;8.552;2023-02-01T06:42:00;18.95;;;3.60;;
74632;SDS011;63139;52.018;8.552;2023-02-01T06:44:28;17.73;;;3.10;;
74632;SDS011;63139;52.018;8.552;2023-02-01T06:46:56;13.73;;;2.75;;
74632;SDS011;63139;52.018;8.552;2023-02-01T06:49:24;18.80;;;3.17;;
74632;SDS011;63139;52.018;8.552;2023-02-01T06:51:51;20.25;;;2.65;;
74632;SDS011;63139;52.018;8.552;2023-02-01T06:54:19;18.65;;;3.47;;
74632;SDS011;63139;52.018;8.552;2023-02-01T06:56:47;22.70;;;3.47;;
74632;SDS011;63139;52.018;8.552;2023-02-01T06:59:16;19.50;;;3.20;;
74632;SDS011;63139;52.018;8.552;2023-02-01T07:01:44;17.65;;;3.40;;
74632;SDS011;63139;52.018;8.552;2023-02-01T07:04:12;21.15;;;3.17;;
74632;SDS011;63139;52.018;8.552;2023-02-01T07:06:40;19.90;;;2.92;;
74632;SDS011;63139;52.018;8.552;2023-02-01T07:09:08;19.92;;;3.92;;
74632;SDS011;63139;52.018;8.552;2023-02-01T07:11:38;21.27;;;4.10;;
74632;SDS011;63139;52.018;8.552;2023-02-01T07:14:09;16.13;;;3.47;;
74632;SDS011;63139;52.018;8.552;2023-02-01T07:16:38;19.40;;;3.25;;
74632;SDS011;63139;52.018;8.552;2023-02-01T07:19:06;20.40;;;3.35;;
74632;SDS011;63139;52.018;8.552;2023-02-01T07:21:34;17.35;;;3.40;;
74632;SDS011;63139;52.018;8.552;2023-02-01T07:24:02;15.02;;;2.83;;
74632;SDS011;63139;52.018;8.552;2023-02-01T07:26:30;18.17;;;3.70;;
74632;SDS011;63139;52.018;8.552;2023-02-01T07:28:58;22.55;;;3.47;;
74632;SDS011;63139;52.018;8.552;2023-02-01T07:31:26;22.48;;;3.63;;
74632;SDS011;63139;52.018;8.552;2023-02-01T07:33:56;16.52;;;3.58;;
74632;SDS011;63139;52.018;8.552;2023-02-01T07:36:24;15.38;;;2.83;;
74632;SDS011;63139;52.018;8.552;2023-02-01T07:38:52;19.98;;;3.47;;
74632;SDS011;63139;52.018;8.552;2023-02-01T07:41:22;22.20;;;3.42;;
74632;SDS011;63139;52.018;8.552;2023-02-01T07:43:52;21.08;;;3.15;;
74632;SDS011;63139;52.018;8.552;2023-02-01T07:46:20;16.23;;;2.40;;
74632;SDS011;63139;52.018;8.552;2023-02-01T07:48:47;18.75;;;2.90;;
74632;SDS011;63139;52.018;8.552;2023-02-01T07:51:17;15.57;;;2.72;;
74632;SDS011;63139;52.018;8.552;2023-02-01T07:53:45;16.15;;;2.97;;
74632;SDS011;63139;52.018;8.552;2023-02-01T07:56:14;20.98;;;3.55;;
74632;SDS011;63139;52.018;8.552;2023-02-01T07:58:46;13.45;;;2.65;;
74632;SDS011;63139;52.018;8.552;2023-02-01T08:01:15;20.75;;;3.20;;
74632;SDS011;63139;52.018;8.552;2023-02-01T08:03:46;28.67;;;4.10;;
74632;SDS011;63139;52.018;8.552;2023-02-01T08:06:16;17.23;;;3.05;;
74632;SDS011;63139;52.018;8.552;2023-02-01T08:08:45;16.30;;;3.00;;
74632;SDS011;63139;52.018;8.552;2023-02-01T08:11:13;23.65;;;3.60;;
74632;SDS011;63139;52.018;8.552;2023-02-01T08:13:42;28.45;;;4.97;;
74632;SDS011;63139;52.018;8.552;2023-02-01T08:16:11;21.23;;;2.92;;
74632;SDS011;63139;52.018;8.552;2023-02-01T08:18:40;16.52;;;3.20;;
74632;SDS011;63139;52.018;8.552;2023-02-01T08:21:08;16.25;;;3.08;;
74632;SDS011;63139;52.018;8.552;2023-02-01T08:23:40;16.00;;;3.08;;
74632;SDS011;63139;52.018;8.552;2023-02-01T08:26:09;21.35;;;3.13;;
74632;SDS011;63139;52.018;8.552;2023-02-01T08:28:41;15.25;;;2.80;;
74632;SDS011;63139;52.018;8.552;2023-02-01T08:31:11;12.77;;;3.03;;
74632;SDS011;63139;52.018;8.552;2023-02-01T08:33:41;14.43;;;3.10;;
74632;SDS011;63139;52.018;8.552;2023-02-01T08:36:10;17.05;;;3.40;;
74632;SDS011;63139;52.018;8.552;2023-02-01T08:38:40;15.25;;;3.35;;
74632;SDS011;63139;52.018;8.552;2023-02-01T08:41:09;19.90;;;2.95;;
74632;SDS011;63139;52.018;8.552;2023-02-01T08:43:38;18.48;;;3.45;;
74632;SDS011;63139;52.018;8.552;2023-02-01T08:46:06;22.90;;;3.65;;
74632;SDS011;63139;52.018;8.552;2023-02-01T08:48:35;18.05;;;3.78;;
74632;SDS011;63139;52.018;8.552;2023-02-01T08:51:03;19.52;;;3.25;;
74632;SDS011;63139;52.018;8.552;2023-02-01T08:53:33;14.70;;;3.20;;
74632;SDS011;63139;52.018;8.552;2023-02-01T08:56:03;15.48;;;3.22;;
74632;SDS011;63139;52.018;8.552;2023-02-01T08:58:33;19.00;;;3.58;;
74632;SDS011;63139;52.018;8.552;2023-02-01T09:01:02;13.38;;;3.40;;
74632;SDS011;63139;52.018;8.552;2023-02-01T09:03:31;18.67;;;3.08;;
74632;SDS011;63139;52.018;8.552;2023-02-01T09:05:59;19.42;;;3.30;;
74632;SDS011;63139;52.018;8.552;2023-02-01T09:08:28;15.07;;;3.17;;
74632;SDS011;63139;52.018;8.552;2023-02-01T09:10:59;16.55;;;3.30;;
74632;SDS011;63139;52.018;8.552;2023-02-01T09:13:30;12.20;;;2.80;;
74632;SDS011;63139;52.018;8.552;2023-02-01T09:16:00;11.30;;;2.92;;
74632;SDS011;63139;52.018;8.552;2023-02-01T09:18:27;17.60;;;3.53;;
74632;SDS011;63139;52.018;8.552;2023-02-01T09:20:55;16.83;;;3.25;;
74632;SDS011;63139;52.018;8.552;2023-02-01T09:23:23;22.70;;;3.40;;
74632;SDS011;63139;52.018;8.552;2023-02-01T09:25:51;15.82;;;3.42;;
74632;SDS011;63139;52.018;8.552;2023-02-01T09:28:19;12.63;;;3.15;;
74632;SDS011;63139;52.018;8.552;2023-02-01T09:30:48;19.88;;;3.08;;
74632;SDS011;63139;52.018;8.552;2023-02-01T09:33:16;15.82;;;3.42;;
74632;SDS011;63139;52.018;8.552;2023-02-01T09:35:44;20.77;;;3.75;;
74632;SDS011;63139;52.018;8.552;2023-02-01T09:38:12;16.23;;;3.08;;
74632;SDS011;63139;52.018;8.552;2023-02-01T09:40:40;19.63;;;3.45;;
74632;SDS011;63139;52.018;8.552;2023-02-01T09:43:17;17.38;;;3.00;;
74632;SDS011;63139;52.018;8.552;2023-02-01T09:45:55;15.98;;;3.30;;
74632;SDS011;63139;52.018;8.552;2023-02-01T09:48:30;11.93;;;2.97;;
74632;SDS011;63139;52.018;8.552;2023-02-01T09:51:02;17.98;;;3.35;;
74632;SDS011;63139;52.018;8.552;2023-02-01T09:53:34;20.55;;;3.38;;
74632;SDS011;63139;52.018;8.552;2023-02-01T09:56:05;16.13;;;3.38;;
74632;SDS011;63139;52.018;8.552;2023-02-01T09:58:41;16.30;;;3.10;;
74632;SDS011;63139;52.018;8.552;2023-02-01T10:01:14;20.75;;;3.25;;
74632;SDS011;63139;52.018;8.552;2023-02-01T10:03:46;14.73;;;3.00;;
74632;SDS011;63139;52.018;8.552;2023-02-01T10:06:19;14.50;;;2.83;;
74632;SDS011;63139;52.018;8.552;2023-02-01T10:09:11;15.20;;;3.22;;
74632;SDS011;63139;52.018;8.552;2023-02-01T10:11:52;13.20;;;3.30;;
74632;SDS011;63139;52.018;8.552;2023-02-01T10:14:36;15.57;;;3.90;;
74632;SDS011;63139;52.018;8.552;2023-02-01T10:17:19;12.38;;;2.90;;
74632;SDS011;63139;52.018;8.552;2023-02-01T10:20:02;16.65;;;3.22;;
74632;SDS011;63139;52.018;8.552;2023-02-01T10:22:39;10.30;;;2.85;;
74632;SDS011;63139;52.018;8.552;2023-02-01T10:25:31;12.70;;;3.13;;
74632;SDS011;63139;52.018;8.552;2023-02-01T10:28:03;17.25;;;2.90;;
74632;SDS011;63139;52.018;8.552;2023-02-01T10:30:33;13.48;;;3.20;;
74632;SDS011;63139;52.018;8.552;2023-02-01T10:33:12;10.27;;;2.78;;
74632;SDS011;63139;52.018;8.552;2023-02-01T10:35:43;14.25;;;3.08;;
74632;SDS011;63139;52.018;8.552;2023-02-01T10:38:16;21.35;;;3.25;;
74632;SDS011;63139;52.018;8.552;2023-02-01T10:40:51;13.35;;;2.80;;
74632;SDS011;63139;52.018;8.552;2023-02-01T10:43:20;12.05;;;2.60;;
74632;SDS011;63139;52.018;8.552;2023-02-01T10:45:48;14.10;;;3.75;;
74632;SDS011;63139;52.018;8.552;2023-02-01T10:48:17;13.68;;;3.10;;
74632;SDS011;63139;52.018;8.552;2023-02-01T10:50:47;12.63;;;2.95;;
74632;SDS011;63139;52.018;8.552;2023-02-01T10:53:20;12.23;;;2.85;;
74632;SDS011;63139;52.018;8.552;2023-02-01T10:55:51;19.08;;;3.10;;
74632;SDS011;63139;52.018;8.552;2023-02-01T10:58:20;14.27;;;2.90;;
74632;SDS011;63139;52.018;8.552;2023-02-01T11:00:56;10.85;;;2.75;;
74632;SDS011;63139;52.018;8.552;2023-02-01T11:03:37;10.88;;;2.90;;
74632;SDS011;63139;52.018;8.552;2023-02-01T11:06:11;13.68;;;3.10;;
74632;SDS011;63139;52.018;8.552;2023-02-01T11:08:45;13.73;;;2.80;;
74632;SDS011;63139;52.018;8.552;2023-02-01T11:11:15;15.10;;;3.17;;
74632;SDS011;63139;52.018;8.552;2023-02-01T11:13:45;17.92;;;3.72;;
74632;SDS011;63139;52.018;8.552;2023-02-01T11:16:20;13.80;;;3.65;;
74632;SDS011;63139;52.018;8.552;2023-02-01T11:18:53;16.52;;;3.78;;
74632;SDS011;63139;52.018;8.552;2023-02-01T11:21:22;14.68;;;2.92;;
74632;SDS011;63139;52.018;8.552;2023-02-01T11:23:50;16.50;;;3.30;;
74632;SDS011;63139;52.018;8.552;2023-02-01T11:26:20;16.58;;;4.28;;
74632;SDS011;63139;52.018;8.552;2023-02-01T11:28:52;13.40;;;2.78;;
74632;SDS011;63139;52.018;8.552;2023-02-01T11:31:23;11.43;;;3.28;;
74632;SDS011;63139;52.018;8.552;2023-02-01T11:33:54;9.90;;;2.60;;
74632;SDS011;63139;52.018;8.552;2023-02-01T11:36:33;13.70;;;2.83;;
74632;SDS011;63139;52.018;8.552;2023-02-01T11:39:08;9.18;;;2.47;;
74632;SDS011;63139;52.018;8.552;2023-02-01T11:41:43;13.00;;;3.15;;
74632;SDS011;63139;52.018;8.552;2023-02-01T11:44:26;16.50;;;2.92;;
74632;SDS011;63139;52.018;8.552;2023-02-01T11:47:16;16.05;;;3.28;;
74632;SDS011;63139;52.018;8.552;2023-02-01T11:49:47;22.52;;;4.03;;
74632;SDS011;63139;52.018;8.552;2023-02-01T11:52:18;24.35;;;3.38;;
74632;SDS011;63139;52.018;8.552;2023-02-01T11:55:11;13.73;;;2.83;;
74632;SDS011;63139;52.018;8.552;2023-02-01T11:57:51;16.00;;;3.47;;
74632;SDS011;63139;52.018;8.552;2023-02-01T12:00:34;14.07;;;3.13;;
74632;SDS011;63139;52.018;8.552;2023-02-01T12:03:25;13.13;;;2.72;;
74632;SDS011;63139;52.018;8.552;2023-02-01T12:06:10;12.70;;;2.97;;
74632;SDS011;63139;52.018;8.552;2023-02-01T12:08:58;18.23;;;3.88;;
74632;SDS011;63139;52.018;8.552;2023-02-01T12:11:50;20.10;;;3.58;;
74632;SDS011;63139;52.018;8.552;2023-02-01T12:14:33;12.65;;;3.13;;
74632;SDS011;63139;52.018;8.552;2023-02-01T12:20:21;15.05;;;3.17;;
74632;SDS011;63139;52.018;8.552;2023-02-01T12:23:06;12.00;;;3.20;;
74632;SDS011;63139;52.018;8.552;2023-02-01T12:25:53;17.63;;;3.22;;
74632;SDS011;63139;52.018;8.552;2023-02-01T12:28:48;11.85;;;2.85;;
74632;SDS011;63139;52.018;8.552;2023-02-01T12:31:40;20.05;;;3.85;;
74632;SDS011;63139;52.018;8.552;2023-02-01T12:37:28;18.67;;;4.10;;
74632;SDS011;63139;52.018;8.552;2023-02-01T12:40:14;15.07;;;3.95;;
74632;SDS011;63139;52.018;8.552;2023-02-01T12:42:57;17.25;;;3.33;;
74632;SDS011;63139;52.018;8.552;2023-02-01T12:45:30;20.83;;;3.97;;
74632;SDS011;63139;52.018;8.552;2023-02-01T12:48:04;10.27;;;3.50;;
74632;SDS011;63139;52.018;8.552;2023-02-01T12:50:48;8.20;;;3.33;;
74632;SDS011;63139;52.018;8.552;2023-02-01T12:53:23;17.55;;;4.13;;
74632;SDS011;63139;52.018;8.552;2023-02-01T12:55:57;15.77;;;3.70;;
74632;SDS011;63139;52.018;8.552;2023-02-01T12:58:31;12.43;;;3.75;;
74632;SDS011;63139;52.018;8.552;2023-02-01T13:01:17;18.27;;;4.63;;
74632;SDS011;63139;52.018;8.552;2023-02-01T13:03:53;11.70;;;3.85;;
74632;SDS011;63139;52.018;8.552;2023-02-01T13:06:27;16.30;;;4.80;;
74632;SDS011;63139;52.018;8.552;2023-02-01T13:09:00;16.80;;;4.50;;
74632;SDS011;63139;52.018;8.552;2023-02-01T13:11:33;16.70;;;4.10;;
74632;SDS011;63139;52.018;8.552;2023-02-01T13:14:03;14.82;;;4.07;;
74632;SDS011;63139;52.018;8.552;2023-02-01T13:16:38;12.45;;;3.90;;
74632;SDS011;63139;52.018;8.552;2023-02-01T13:19:10;19.55;;;4.32;;
74632;SDS011;63139;52.018;8.552;2023-02-01T13:21:45;15.35;;;4.20;;
74632;SDS011;63139;52.018;8.552;2023-02-01T13:24:20;17.30;;;3.83;;
74632;SDS011;63139;52.018;8.552;2023-02-01T13:26:59;12.48;;;3.80;;
74632;SDS011;63139;52.018;8.552;2023-02-01T13:29:28;15.07;;;3.97;;
74632;SDS011;63139;52.018;8.552;2023-02-01T13:32:01;12.73;;;4.45;;
74632;SDS011;63139;52.018;8.552;2023-02-01T13:38:04;13.50;;;3.78;;
74632;SDS011;63139;52.018;8.552;2023-02-01T13:40:49;17.25;;;3.53;;
74632;SDS011;63139;52.018;8.552;2023-02-01T13:43:31;18.52;;;4.15;;
74632;SDS011;63139;52.018;8.552;2023-02-01T13:46:02;14.90;;;3.65;;
74632;SDS011;63139;52.018;8.552;2023-02-01T13:48:34;14.73;;;3.65;;
74632;SDS011;63139;52.018;8.552;2023-02-01T13:51:06;13.88;;;3.53;;
74632;SDS011;63139;52.018;8.552;2023-02-01T13:53:35;13.05;;;3.83;;
74632;SDS011;63139;52.018;8.552;2023-02-01T13:56:06;14.80;;;3.72;;
74632;SDS011;63139;52.018;8.552;2023-02-01T13:58:40;17.33;;;4.03;;
74632;SDS011;63139;52.018;8.552;2023-02-01T14:01:33;10.10;;;3.10;;
74632;SDS011;63139;52.018;8.552;2023-02-01T14:04:03;16.02;;;3.63;;
74632;SDS011;63139;52.018;8.552;2023-02-01T14:06:35;12.50;;;3.30;;
74632;SDS011;63139;52.018;8.552;2023-02-01T14:09:15;12.70;;;3.78;;
74632;SDS011;63139;52.018;8.552;2023-02-01T14:12:04;12.57;;;3.33;;
74632;SDS011;63139;52.018;8.552;2023-02-01T14:15:22;14.45;;;3.33;;
74632;SDS011;63139;52.018;8.552;2023-02-01T14:17:53;10.75;;;2.95;;
74632;SDS011;63139;52.018;8.552;2023-02-01T14:20:36;10.73;;;2.90;;
74632;SDS011;63139;52.018;8.552;2023-02-01T14:23:14;9.15;;;2.78;;
74632;SDS011;63139;52.018;8.552;2023-02-01T14:25:44;10.88;;;2.17;;
74632;SDS011;63139;52.018;8.552;2023-02-01T14:28:29;6.82;;;1.70;;
74632;SDS011;63139;52.018;8.552;2023-02-01T14:30:59;5.88;;;1.85;;
74632;SDS011;63139;52.018;8.552;2023-02-01T14:33:27;4.13;;;1.33;;
74632;SDS011;63139;52.018;8.552;2023-02-01T14:36:03;7.40;;;1.50;;
74632;SDS011;63139;52.018;8.552;2023-02-01T14:38:35;6.05;;;1.45;;
74632;SDS011;63139;52.018;8.552;2023-02-01T14:41:12;5.15;;;1.45;;
74632;SDS011;63139;52.018;8.552;2023-02-01T14:50:10;3.08;;;1.10;;
74632;SDS011;63139;52.018;8.552;2023-02-01T14:53:03;5.40;;;1.30;;
74632;SDS011;63139;52.018;8.552;2023-02-01T14:55:43;8.60;;;1.98;;
74632;SDS011;63139;52.018;8.552;2023-02-01T14:58:18;9.68;;;1.75;;
74632;SDS011;63139;52.018;8.552;2023-02-01T15:01:00;6.13;;;1.80;;
74632;SDS011;63139;52.018;8.552;2023-02-01T15:03:43;8.43;;;1.90;;
74632;SDS011;63139;52.018;8.552;2023-02-01T15:06:22;7.07;;;1.80;;
74632;SDS011;63139;52.018;8.552;2023-02-01T15:08:53;6.38;;;1.85;;
74632;SDS011;63139;52.018;8.552;2023-02-01T15:11:23;8.60;;;2.25;;
74632;SDS011;63139;52.018;8.552;2023-02-01T15:13:52;7.70;;;1.98;;
74632;SDS011;63139;52.018;8.552;2023-02-01T15:16:22;7.45;;;2.20;;
74632;SDS011;63139;52.018;8.552;2023-02-01T15:21:47;9.52;;;2.10;;
74632;SDS011;63139;52.018;8.552;2023-02-01T15:24:20;11.52;;;2.53;;
74632;SDS011;63139;52.018;8.552;2023-02-01T15:26:49;12.35;;;2.65;;
74632;SDS011;63139;52.018;8.552;2023-02-01T15:29:18;7.30;;;2.35;;
74632;SDS011;63139;52.018;8.552;2023-02-01T15:31:48;6.90;;;2.15;;
74632;SDS011;63139;52.018;8.552;2023-02-01T15:34:17;12.15;;;2.30;;